Aubrey, Texas
Current Conditions -  °F | °C
As of 12:53 AM on Wednesday 26 Nov 2014 (Local Time) from KDTO Reporting Station
Clear Clear  
Wind Chill: 37°   Ceiling: Unl
Heat Index: 41°   Visibility: 10mi
Dew Point: 31°   Wind: 6mph
Humidity: 67%   Direction: 180°S
Pressure: 30.05"   Gusts: NA
Location:  33.3°N, 96.99°W
Report Text: KDTO 260653Z AUTO 18005KT 10SM CLR 05/M01 A3005 RMK AO2 SLP175 T00501006
Loading
Personal Weather Stations






























Interactive Weather Map New forecast layout! Learn more

10-Day Weather Forecast

Advertisements
Track Severe Weather on mobile